Weather observations for the past three days for
El Reno, El Reno Regional Airport
Imperial (Metric)
Date Time (cdt) Wind (mph) Vis. (mi.) Weather Sky Cond. Temperature (ºF) Relative Humidity Wind Chill (°F) Heat Index (°F) Pressure Precipitation (in)
Air Dwpt 6 hour altimeter (in) sea level (mb) 1 hr 3 hr 6 hr
Max. Min.
04 19:55 SE 13 10.00 Fair CLR 93.2 64.4 39% 95 29.87 0.0
04 19:35 SE 16 10.00 Fair CLR 95 64.4 36% 97 29.87 0.0
04 19:15 SE 17 10.00 Fair CLR 96.8 64.4 34% 99 29.87 0.0
04 18:55 SE 17 10.00 Fair CLR 98.6 64.4 33% 101 29.86 0.0
04 18:35 SE 15 10.00 Fair CLR 98.6 64.4 33% 101 29.86 0.0
04 18:15 S 16 G 23 10.00 Fair CLR 100.4 64.4 31% 104 29.86 0.0
04 17:55 SE 14 10.00 Fair CLR 100.4 64.4 31% 104 29.86 0.0
04 17:35 S 17 G 22 10.00 Partly Cloudy SCT080 100.4 62.6 29% 102 29.86 0.0
04 17:15 SE 18 G 32 10.00 Fair CLR 102.2 62.6 27% 104 29.86 0.0
04 16:55 S 16 10.00 Fair CLR 102.2 62.6 27% 104 29.86 0.0
04 16:35 S 13 G 20 10.00 Partly Cloudy SCT080 102.2 62.6 27% 104 29.87 0.0
04 16:15 S 10 G 20 10.00 Partly Cloudy SCT070 102.2 62.6 27% 104 29.87 0.0
04 15:55 S 16 10.00 Partly Cloudy SCT070 102.2 64.4 29% 106 29.88 0.0
04 15:35 S 9 G 18 10.00 Fair CLR 102.2 64.4 29% 106 29.88 0.0
04 15:15 S 14 G 20 10.00 Fair CLR 100.4 64.4 31% 104 29.89 0.0
04 14:55 SW 12 G 18 10.00 Fair CLR 100.4 66.2 33% 105 29.9 0.0
04 14:35 S 12 G 18 10.00 Fair CLR 98.6 66.2 35% 103 29.9 0.0
04 14:15 S 14 G 17 10.00 Fair CLR 98.6 66.2 35% 103 29.91 0.0
04 13:55 S 15 10.00 Fair CLR 98.6 66.2 35% 103 29.91 0.0
04 13:35 S 15 G 21 10.00 Fair CLR 96.8 68 39% 102 29.92 0.0
04 13:15 S 14 G 17 10.00 Fair CLR 96.8 68 39% 102 29.93 0.0
04 12:55 S 13 G 22 10.00 Fair CLR 95 68 41% 100 29.93 0.0
04 12:35 S 13 10.00 Fair CLR 95 68 41% 100 29.94 0.0
04 12:15 S 14 G 20 10.00 Fair CLR 93.2 69.8 47% 99 29.95 0.0
04 11:55 S 10 10.00 Fair CLR 93.2 69.8 47% 99 29.95 0.0
04 11:35 S 14 G 20 10.00 Fair CLR 91.4 69.8 49% 97 29.96 0.0
04 11:15 S 15 10.00 Fair CLR 89.6 69.8 52% 95 29.96 0.0
04 10:55 S 12 10.00 Fair CLR 87.8 69.8 55% 93 29.96 0.0
04 10:35 S 13 10.00 Fair CLR 86 69.8 59% 91 29.96 0.0
04 10:15 S 14 10.00 Fair CLR 86 69.8 59% 91 29.96 0.0
04 09:55 S 17 10.00 Fair CLR 84.2 69.8 62% 88 29.95 0.0
04 09:35 S 17 10.00 Fair CLR 84.2 69.8 62% 88 29.95 0.0
04 09:15 S 17 10.00 Fair CLR 82.4 69.8 66% 86 29.95 0.0
04 08:55 S 15 10.00 Fair CLR 78.8 68 70% 81 29.95 0.0
04 08:35 S 13 10.00 Fair CLR 78.8 68 70% 81 29.95 0.0
04 08:15 SE 14 10.00 Fair CLR 77 68 74% 79 29.95 0.0
04 07:55 SE 9 10.00 Fair CLR 75.2 68 78% 76 29.94 0.0
04 07:35 S 9 10.00 Fair CLR 73.4 68 83% 29.94 0.0
04 07:15 S 8 10.00 Fair CLR 73.4 68 83% 29.93 0.0
04 06:55 SE 8 10.00 Fair CLR 73.4 68 83% 29.93 0.0
04 06:35 SE 9 10.00 Fair CLR 73.4 68 83% 29.93 0.0
04 06:15 S 8 10.00 Fair CLR 73.4 68 83% 29.92 0.0
04 05:55 S 8 10.00 Fair CLR 73.4 68 83% 29.92 0.0
04 05:35 S 9 10.00 Fair CLR 73.4 69.8 89% 29.93 0.0
04 05:15 SE 9 10.00 Fair CLR 73.4 69.8 89% 29.92 0.0
04 04:55 S 8 10.00 Fair CLR 75.2 69.8 83% 75 29.92 0.0
04 04:35 SE 8 10.00 Fair CLR 75.2 69.8 83% 75 29.92 0.0
04 04:15 S 8 10.00 Fair CLR 75.2 69.8 83% 75 29.92 0.0
04 03:55 S 8 10.00 Fair CLR 75.2 69.8 83% 75 29.92 0.0
04 03:35 S 9 10.00 Fair CLR 75.2 69.8 83% 75 29.92 0.0
04 03:15 S 9 10.00 Fair CLR 75.2 69.8 83% 75 29.92 0.0
04 02:55 S 9 10.00 Fair CLR 77 69.8 79% 79 29.91 0.0
04 02:35 S 12 10.00 Fair CLR 77 69.8 79% 79 29.91 0.0
04 02:15 S 13 10.00 Fair CLR 77 69.8 79% 79 29.91 0.0
04 01:55 S 13 10.00 Fair CLR 77 69.8 79% 79 29.92 0.0
04 01:35 S 13 10.00 Fair CLR 78.8 69.8 74% 81 29.92 0.0
04 01:15 S 14 10.00 Fair CLR 78.8 69.8 74% 81 29.92 0.0
04 00:55 S 16 10.00 Fair CLR 78.8 69.8 74% 81 29.92 0.0
04 00:35 S 12 10.00 Fair CLR 78.8 69.8 74% 81 29.92 0.0
04 00:15 S 14 10.00 Fair CLR 78.8 69.8 74% 81 29.91 0.0
03 23:55 S 15 10.00 Fair CLR 80.6 69.8 70% 84 29.92 0.0
03 23:35 S 13 10.00 Fair CLR 80.6 69.8 70% 84 29.92 0.0
03 23:15 SE 14 10.00 Fair CLR 80.6 69.8 70% 84 29.92 0.0
03 22:55 SE 13 10.00 Fair CLR 80.6 69.8 70% 84 29.92 0.0
03 22:35 SE 16 10.00 Fair CLR 82.4 69.8 66% 86 29.92 0.0
03 22:15 SE 15 10.00 Fair CLR 82.4 69.8 66% 86 29.92 0.0
03 21:55 SE 14 10.00 Fair CLR 84.2 69.8 62% 88 29.92 0.0
03 21:35 SE 15 10.00 Fair CLR 84.2 69.8 62% 88 29.91 0.0
03 21:15 SE 17 10.00 Fair CLR 84.2 68 58% 87 29.9 0.0
03 20:55 SE 16 10.00 Fair CLR 86 68 55% 89 29.9 0.0
03 20:35 SE 16 10.00 Fair CLR 86 68 55% 89 29.89 0.0
03 20:15 SE 15 10.00 Fair CLR 87.8 68 52% 91 29.88 0.0
03 19:55 SE 15 10.00 Fair CLR 87.8 68 52% 91 29.88 0.0
03 19:35 SE 18 10.00 Fair CLR 89.6 68 49% 93 29.87 0.0
03 19:15 SE 17 10.00 Fair CLR 91.4 66.2 44% 94 29.87 0.0
03 18:55 SE 17 10.00 Fair CLR 93.2 66.2 41% 96 29.86 0.0
03 18:35 SE 20 G 23 10.00 Fair CLR 95 66.2 39% 98 29.86 0.0
03 18:15 SE 16 10.00 Fair CLR 95 66.2 39% 98 29.85 0.0
03 17:55 SE 15 10.00 Fair CLR 95 66.2 39% 98 29.85 0.0
03 17:35 SE 16 10.00 Fair CLR 96.8 64.4 34% 99 29.85 0.0
03 17:15 SE 15 G 20 10.00 Fair CLR 96.8 66.2 37% 100 29.85 0.0
03 16:55 SE 14 10.00 Fair CLR 96.8 64.4 34% 99 29.86 0.0
03 16:35 SE 15 G 21 10.00 Fair CLR 98.6 66.2 35% 103 29.86 0.0
03 16:20 SE 14 G 20 10.00 Fair CLR 98.6 66.2 35% 103 29.86 0.0
03 13:55 S 13 10.00 Fair CLR 96.8 66.2 37% 100 29.9 0.0
03 13:35 S 13 G 18 10.00 Fair CLR 96.8 66.2 37% 100 29.91 0.0
03 13:15 SE 10 10.00 Fair CLR 96.8 66.2 37% 100 29.92 0.0
03 12:55 S 9 10.00 Fair CLR 95 66.2 39% 98 29.92 0.0
03 12:35 SE 9 G 18 10.00 Fair CLR 93.2 66.2 41% 96 29.94 0.0
03 12:15 SE 13 10.00 Fair CLR 93.2 68 44% 98 29.94 0.0
03 11:55 SE 13 10.00 Fair CLR 91.4 68 46% 96 29.95 0.0
03 11:35 SE 13 G 16 10.00 Fair CLR 89.6 68 49% 93 29.95 0.0
03 11:15 S 8 10.00 Fair CLR 89.6 68 49% 93 29.95 0.0
03 10:55 SE 13 G 18 10.00 Fair CLR 86 68 55% 89 29.95 0.0
03 10:35 SE 13 10.00 Fair CLR 84.2 68 58% 87 29.96 0.0
03 10:15 S 13 10.00 Fair CLR 84.2 68 58% 87 29.96 0.0
03 09:55 S 13 10.00 Fair CLR 82.4 69.8 66% 86 29.96 0.0
03 09:35 SE 15 10.00 Fair CLR 80.6 69.8 70% 84 29.97 0.0
03 09:15 S 14 10.00 Fair CLR 78.8 69.8 74% 81 29.97 0.0
03 08:55 S 15 10.00 Fair CLR 78.8 68 70% 81 29.98 0.0
03 08:35 S 17 10.00 Fair CLR 77 68 74% 79 29.98 0.0
03 08:15 S 15 10.00 Fair CLR 77 68 74% 79 29.97 0.0
03 07:55 S 10 10.00 Fair CLR 75.2 68 78% 76 29.97 0.0
03 07:35 S 10 10.00 Fair CLR 73.4 68 83% 29.96 0.0
03 07:15 S 10 10.00 Fair CLR 73.4 68 83% 29.96 0.0
03 06:55 S 10 10.00 Fair CLR 73.4 68 83% 29.96 0.0
03 06:35 S 9 10.00 Fair CLR 73.4 66.2 78% 29.95 0.0
03 06:15 S 9 10.00 Fair CLR 75.2 68 78% 76 29.95 0.0
03 05:55 S 10 10.00 Fair CLR 75.2 68 78% 76 29.95 0.0
03 05:35 S 10 10.00 Fair CLR 75.2 68 78% 76 29.94 0.0
03 05:15 S 10 10.00 Fair CLR 75.2 68 78% 76 29.94 0.0
03 04:55 S 10 10.00 Fair CLR 75.2 68 78% 76 29.94 0.0
03 04:35 S 9 10.00 Fair CLR 77 68 74% 79 29.94 0.0
03 04:15 S 9 10.00 Fair CLR 77 68 74% 79 29.94 0.0
03 03:55 S 9 10.00 Fair CLR 77 68 74% 79 29.94 0.0
03 03:35 S 13 10.00 Fair CLR 78.8 68 70% 81 29.94 0.0
03 03:15 S 12 10.00 Fair CLR 78.8 66.2 65% 81 29.94 0.0
03 02:55 S 12 10.00 Fair CLR 80.6 66.2 62% 83 29.94 0.0
03 02:35 S 13 10.00 Fair CLR 80.6 66.2 62% 83 29.94 0.0
03 02:15 S 14 10.00 Fair CLR 82.4 66.2 58% 85 29.94 0.0
03 01:55 S 14 10.00 Fair CLR 82.4 66.2 58% 85 29.94 0.0
03 01:35 S 14 10.00 Fair CLR 82.4 66.2 58% 85 29.94 0.0
03 01:15 S 16 10.00 Fair CLR 82.4 66.2 58% 85 29.94 0.0
03 00:55 S 15 10.00 Fair CLR 84.2 64.4 51% 86 29.94 0.0
03 00:35 SE 13 10.00 Fair CLR 84.2 64.4 51% 86 29.94 0.0
03 00:15 SE 10 10.00 Fair CLR 82.4 62.6 51% 83 29.93 0.0
02 23:55 SE 13 10.00 Fair CLR 84.2 62.6 48% 85 29.93 0.0
02 23:35 S 13 10.00 Fair CLR 86 62.6 46% 87 29.93 0.0
02 23:15 SE 14 10.00 Fair CLR 86 62.6 46% 87 29.94 0.0
02 22:55 SE 13 10.00 Fair CLR 86 62.6 46% 87 29.94 0.0
02 22:35 SE 12 10.00 Fair CLR 84.2 62.6 48% 85 29.94 0.0
02 22:15 SE 9 10.00 Fair CLR 86 62.6 46% 87 29.93 0.0
02 21:55 SE 12 10.00 Fair CLR 87.8 62.6 43% 88 29.93 0.0
02 21:35 SE 12 10.00 Fair CLR 87.8 62.6 43% 88 29.92 0.0
02 21:15 SE 12 10.00 Fair CLR 87.8 60.8 40% 88 29.92 0.0
02 20:55 SE 10 10.00 Fair CLR 87.8 60.8 40% 88 29.91 0.0
02 20:35 SE 10 10.00 Fair CLR 89.6 60.8 38% 90 29.91 0.0
02 20:15 SE 10 10.00 Fair CLR 91.4 60.8 36% 91 29.9 0.0
02 19:55 SE 12 10.00 Fair CLR 93.2 60.8 34% 93 29.9 0.0
02 19:35 SE 15 10.00 Fair CLR 95 60.8 32% 95 29.9 0.0
02 19:15 SE 15 10.00 Fair CLR 96.8 60.8 30% 97 29.89 0.0
02 18:55 SE 13 10.00 Fair CLR 98.6 60.8 29% 99 29.89 0.0
02 18:35 SE 13 G 17 10.00 Fair CLR 98.6 60.8 29% 99 29.89 0.0
02 18:15 SE 14 10.00 Fair CLR 100.4 60.8 27% 101 29.89 0.0
02 17:55 SE 14 G 21 10.00 Partly Cloudy SCT085 100.4 60.8 27% 101 29.9 0.0
02 17:35 SE 20 10.00 Partly Cloudy SCT085 100.4 60.8 27% 101 29.9 0.0
02 17:15 SE 13 G 20 10.00 Fair CLR 100.4 60.8 27% 101 29.9 0.0
02 16:55 SE 13 G 17 10.00 Fair CLR 100.4 59 25% 100 29.9 0.0
02 16:35 S 16 10.00 Fair CLR 102.2 60.8 26% 103 29.91 0.0
02 16:15 S 12 G 22 10.00 Partly Cloudy SCT085 100.4 59 25% 100 29.91 0.0
02 15:55 SE 9 G 22 10.00 Partly Cloudy SCT085 102.2 59 24% 102 29.92 0.0
02 15:35 S 16 G 20 10.00 Fair CLR 100.4 59 25% 100 29.93 0.0
02 15:15 SE 10 G 21 10.00 Fair CLR 102.2 60.8 26% 103 29.94 0.0
02 14:55 S 10 G 18 10.00 Fair CLR 100.4 60.8 27% 101 29.95 0.0
02 14:35 SE 9 G 20 10.00 Fair CLR 100.4 60.8 27% 101 29.96 0.0
02 14:15 SE 13 G 18 10.00 Fair CLR 100.4 62.6 29% 102 29.97 0.0
02 13:55 S 8 G 22 10.00 Fair CLR 100.4 60.8 27% 101 29.97 0.0
02 13:35 S 14 G 20 10.00 Fair CLR 98.6 62.6 31% 100 29.98 0.0
02 13:15 S 13 10.00 Fair CLR 98.6 62.6 31% 100 30 0.0
02 12:55 S 10 G 16 10.00 Fair CLR 98.6 64.4 33% 101 30 0.0
02 12:35 S 12 G 18 10.00 Fair CLR 96.8 64.4 34% 99 30.01 0.0
02 12:15 SW 12 G 20 10.00 Fair CLR 96.8 64.4 34% 99 30.02 0.0
02 11:50 S 13 G 21 10.00 Fair CLR 96.8 64.4 34% 99 30.02 0.0
02 11:35 S 10 10.00 Fair CLR 95 64.4 36% 97 30.03 0.0
02 11:15 S 12 10.00 Fair CLR 93.2 66.2 41% 96 30.03 0.0
02 10:55 S 13 10.00 Fair CLR 91.4 66.2 44% 94 30.03 0.0
02 10:35 S 14 10.00 Fair CLR 91.4 66.2 44% 94 30.03 0.0
02 10:15 S 12 10.00 Fair CLR 87.8 66.2 49% 90 30.03 0.0
02 09:55 S 16 10.00 Fair CLR 86 66.2 52% 88 30.04 0.0
02 09:35 S 17 10.00 Fair CLR 86 64.4 49% 87 30.04 0.0
02 09:15 S 16 10.00 Fair CLR 84.2 64.4 51% 86 30.04 0.0
02 08:55 S 16 10.00 Fair CLR 82.4 64.4 55% 84 30.04 0.0
02 08:35 S 14 10.00 Fair CLR 82.4 64.4 55% 84 30.04 0.0
02 08:15 S 14 10.00 Fair CLR 80.6 64.4 58% 82 30.04 0.0
02 07:55 S 12 10.00 Fair CLR 78.8 64.4 61% 81 30.03 0.0
02 07:35 S 9 10.00 Fair CLR 75.2 64.4 69% 77 30.03 0.0
02 07:15 S 9 10.00 Fair CLR 73.4 64.4 74% 30.02 0.0
02 06:55 S 8 10.00 Fair CLR 73.4 64.4 74% 30.01 0.0
02 06:35 S 10 10.00 Fair CLR 73.4 64.4 74% 30.01 0.0
02 06:15 S 9 10.00 Fair CLR 73.4 62.6 69% 30.01 0.0
02 05:55 S 7 10.00 Fair CLR 73.4 62.6 69% 30.01 0.0
02 05:35 S 8 10.00 Fair CLR 75.2 62.6 65% 77 30.01 0.0
02 05:15 S 8 10.00 Fair CLR 75.2 62.6 65% 77 30.01 0.0
02 04:55 S 8 10.00 Fair CLR 75.2 62.6 65% 77 30 0.0
02 04:35 S 8 10.00 Fair CLR 77 62.6 61% 79 30 0.0
02 04:15 S 10 10.00 Fair CLR 77 62.6 61% 79 30 0.0
02 03:55 S 9 10.00 Fair CLR 77 62.6 61% 79 30 0.0
02 03:35 S 9 10.00 Fair CLR 78.8 62.6 58% 80 30 0.0
02 03:15 S 10 10.00 Fair CLR 77 62.6 61% 79 29.99 0.0
02 02:55 S 8 10.00 Fair CLR 78.8 62.6 58% 80 30 0.0
02 02:35 S 9 10.00 Fair CLR 78.8 62.6 58% 80 30 0.0
02 02:15 SE 9 10.00 Fair CLR 78.8 62.6 58% 80 29.99 0.0
02 01:55 S 8 10.00 Fair CLR 78.8 62.6 58% 80 30 0.0
02 01:35 S 9 10.00 Fair CLR 78.8 60.8 54% 80 30 0.0
02 01:15 S 8 10.00 Fair CLR 80.6 60.8 51% 81 30 0.0
02 00:55 S 9 10.00 Fair CLR 80.6 60.8 51% 81 30 0.0
02 00:35 S 8 10.00 Fair CLR 80.6 60.8 51% 81 30 0.0
02 00:15 S 9 10.00 Fair CLR 82.4 60.8 48% 83 30 0.0
01 23:55 S 9 10.00 Fair CLR 82.4 60.8 48% 83 30 0.0
01 23:35 S 9 10.00 Fair CLR 82.4 60.8 48% 83 30 0.0
01 23:15 S 8 10.00 Fair CLR 84.2 60.8 45% 84 30 0.0
01 22:55 S 9 10.00 Fair CLR 84.2 60.8 45% 84 29.99 0.0
01 22:35 SE 8 10.00 Fair CLR 82.4 60.8 48% 83 29.99 0.0
01 22:15 SE 9 10.00 Fair CLR 84.2 59 43% 84 29.98 0.0
01 21:55 SE 9 10.00 Fair CLR 84.2 60.8 45% 84 29.98 0.0
01 21:35 SE 9 10.00 Fair CLR 86 59 40% 85 29.97 0.0
01 21:15 SE 9 10.00 Fair CLR 86 59 40% 85 29.96 0.0
01 20:55 SE 9 10.00 Fair CLR 87.8 59 38% 87 29.95 0.0
01 20:35 SE 10 10.00 Fair CLR 89.6 59 36% 89 29.94 0.0
Date Time (cdt) Wind (mph) Vis. (mi.) Weather Sky Cond. Air Dwpt Max. Min. Relative Humidity Wind Chill (°F) Heat Index (°F) altimeter (in) sea level (mb) 1 hr 3 hr 6 hr
6 hour
Temperature (ºF) Pressure Precipitation (in)